Time;durP1;ratioP1;P1;durP2;ratioP2;P2;SDS_P1;SDS_P2;PMS_P1;PMS_P2;Temp;Humidity;BMP_temperature;BMP_pressure;BME280_temperature;BME280_humidity;BME280_pressure;Samples;Min_cycle;Max_cycle;Signal;HPM_P1;HPM_P2
2022/11/22 00:02:15;;;;;;;29.05;16.45;;;;;;;;;;5018832;28;20104;-86
2022/11/22 00:04:41;;;;;;;22.88;13.02;;;;;;;;;;5018538;28;20045;-86
2022/11/22 00:07:08;;;;;;;22.80;13.45;;;;;;;;;;5018325;28;20503;-86
2022/11/22 00:09:34;;;;;;;26.05;15.60;;;;;;;;;;5018324;28;20063;-86
2022/11/22 00:12:00;;;;;;;25.05;14.82;;;;;;;;;;5034632;28;20048;-87
2022/11/22 00:14:26;;;;;;;26.88;15.00;;;;;;;;;;5018523;28;20049;-86
2022/11/22 00:16:52;;;;;;;27.95;15.48;;;;;;;;;;5018635;28;20048;-86
2022/11/22 00:19:18;;;;;;;31.45;15.45;;;;;;;;;;5018193;28;20045;-85
2022/11/22 00:21:44;;;;;;;25.45;14.20;;;;;;;;;;5018001;28;20140;-86
2022/11/22 00:24:13;;;;;;;22.02;14.63;;;;;;;;;;5018253;28;20044;-88
2022/11/22 00:26:39;;;;;;;22.50;13.80;;;;;;;;;;5018102;28;20057;-87
2022/11/22 00:29:05;;;;;;;31.00;14.85;;;;;;;;;;5018522;28;20045;-87
2022/11/22 00:31:31;;;;;;;24.67;13.25;;;;;;;;;;5035085;28;20124;-85
2022/11/22 00:33:57;;;;;;;25.08;15.32;;;;;;;;;;5018434;28;20048;-86
2022/11/22 00:36:24;;;;;;;24.77;14.65;;;;;;;;;;5034494;28;20042;-85
2022/11/22 00:38:50;;;;;;;22.83;11.52;;;;;;;;;;5017854;28;20076;-88
2022/11/22 00:41:16;;;;;;;26.02;13.70;;;;;;;;;;5035478;28;20390;-87
2022/11/22 00:43:42;;;;;;;25.17;13.98;;;;;;;;;;5035816;28;20073;-88
2022/11/22 00:46:08;;;;;;;22.73;14.60;;;;;;;;;;5017957;28;20098;-86
2022/11/22 00:48:34;;;;;;;21.42;12.57;;;;;;;;;;5017939;28;20045;-85
2022/11/22 00:51:00;;;;;;;23.73;13.18;;;;;;;;;;5017859;28;20091;-89
2022/11/22 00:53:26;;;;;;;21.15;13.40;;;;;;;;;;5017760;28;20045;-89
2022/11/22 00:55:52;;;;;;;18.40;11.32;;;;;;;;;;5018140;28;20045;-87
2022/11/22 00:58:18;;;;;;;27.90;13.20;;;;;;;;;;5034443;28;20548;-90
2022/11/22 01:00:44;;;;;;;19.70;12.43;;;;;;;;;;5017883;28;20049;-89
2022/11/22 01:03:13;;;;;;;20.55;12.70;;;;;;;;;;5018044;28;20108;-85
2022/11/22 01:05:40;;;;;;;21.73;12.63;;;;;;;;;;5017576;28;20487;-85
2022/11/22 01:08:07;;;;;;;22.83;13.60;;;;;;;;;;5017339;28;20052;-85
2022/11/22 01:10:35;;;;;;;22.58;13.32;;;;;;;;;;5034243;28;20163;-86
2022/11/22 01:13:01;;;;;;;23.73;13.60;;;;;;;;;;5017254;28;20052;-87
2022/11/22 01:15:27;;;;;;;25.40;14.55;;;;;;;;;;5016964;28;20041;-86
2022/11/22 01:17:53;;;;;;;21.20;12.80;;;;;;;;;;5033836;28;20049;-85
2022/11/22 01:20:19;;;;;;;25.73;14.05;;;;;;;;;;5033380;28;20473;-85
2022/11/22 01:22:45;;;;;;;24.15;13.27;;;;;;;;;;5016861;28;20045;-86
2022/11/22 01:25:11;;;;;;;22.60;13.93;;;;;;;;;;5016912;28;20136;-87
2022/11/22 01:27:37;;;;;;;24.70;13.68;;;;;;;;;;5033409;28;20068;-85
2022/11/22 01:30:03;;;;;;;25.70;13.77;;;;;;;;;;5016841;28;20049;-85
2022/11/22 01:32:29;;;;;;;27.48;13.82;;;;;;;;;;5016948;28;20049;-85
2022/11/22 01:34:56;;;;;;;27.55;15.38;;;;;;;;;;5033171;28;20049;-85
2022/11/22 01:37:22;;;;;;;23.67;13.93;;;;;;;;;;5032971;28;20041;-86
2022/11/22 01:39:48;;;;;;;24.08;14.07;;;;;;;;;;5033077;28;20049;-85
2022/11/22 01:42:14;;;;;;;23.90;13.85;;;;;;;;;;5032999;28;20057;-88
2022/11/22 01:44:41;;;;;;;20.88;13.70;;;;;;;;;;5016757;28;20161;-85
2022/11/22 01:47:16;;;;;;;24.75;14.15;;;;;;;;;;5016889;28;20037;-86
2022/11/22 01:49:42;;;;;;;27.65;15.48;;;;;;;;;;5016714;28;20105;-85
2022/11/22 01:52:13;;;;;;;28.60;14.68;;;;;;;;;;5032858;28;20135;-86
2022/11/22 01:54:41;;;;;;;29.60;15.30;;;;;;;;;;5017357;28;20132;-85
2022/11/22 01:57:09;;;;;;;26.30;14.77;;;;;;;;;;5015759;28;20135;-86
2022/11/22 01:59:37;;;;;;;27.55;15.10;;;;;;;;;;5032718;28;20045;-85
2022/11/22 02:02:03;;;;;;;25.65;14.23;;;;;;;;;;5033981;28;20046;-89
2022/11/22 02:04:30;;;;;;;26.77;16.50;;;;;;;;;;5017134;28;20041;-89
2022/11/22 02:07:01;;;;;;;22.23;14.00;;;;;;;;;;5017370;28;20053;-89
2022/11/22 02:09:27;;;;;;;27.83;15.35;;;;;;;;;;5017039;28;20081;-89
2022/11/22 02:11:55;;;;;;;24.50;14.27;;;;;;;;;;5017203;28;20052;-89
2022/11/22 02:14:24;;;;;;;27.83;15.48;;;;;;;;;;5017931;28;20045;-89
2022/11/22 02:16:50;;;;;;;28.08;15.82;;;;;;;;;;5033268;28;20491;-89
2022/11/22 02:19:19;;;;;;;30.00;15.18;;;;;;;;;;5033094;28;20048;-89
2022/11/22 02:21:49;;;;;;;27.77;15.20;;;;;;;;;;5016465;28;20080;-88
2022/11/22 02:24:24;;;;;;;27.67;14.50;;;;;;;;;;5016896;28;20054;-88
2022/11/22 02:26:50;;;;;;;30.25;15.63;;;;;;;;;;5016576;28;20046;-91
2022/11/22 02:29:17;;;;;;;27.08;15.52;;;;;;;;;;5016466;28;20045;-90
2022/11/22 02:31:45;;;;;;;28.85;16.08;;;;;;;;;;5034172;28;20426;-89
2022/11/22 02:34:12;;;;;;;28.75;15.30;;;;;;;;;;5016620;28;20105;-88
2022/11/22 02:36:41;;;;;;;26.30;15.55;;;;;;;;;;5015916;28;20045;-85
2022/11/22 02:39:07;;;;;;;28.60;15.60;;;;;;;;;;5016147;28;20056;-86
2022/11/22 02:41:35;;;;;;;29.58;15.88;;;;;;;;;;5032402;28;20049;-86
2022/11/22 02:44:01;;;;;;;26.77;15.27;;;;;;;;;;5016012;28;20497;-90
2022/11/22 02:46:27;;;;;;;31.42;15.77;;;;;;;;;;5015988;28;20053;-87
2022/11/22 02:48:53;;;;;;;29.27;16.08;;;;;;;;;;5016151;28;20045;-88
2022/11/22 02:51:19;;;;;;;30.67;15.63;;;;;;;;;;5016037;28;20048;-88
2022/11/22 02:53:46;;;;;;;27.98;16.42;;;;;;;;;;5015901;28;20045;-86
2022/11/22 02:56:12;;;;;;;28.17;16.05;;;;;;;;;;5031816;28;20033;-85
2022/11/22 02:58:38;;;;;;;27.10;16.15;;;;;;;;;;5031991;28;20048;-86
2022/11/22 03:01:04;;;;;;;26.42;14.88;;;;;;;;;;5015514;28;20529;-86
2022/11/22 03:03:31;;;;;;;29.80;15.38;;;;;;;;;;5032470;28;20127;-85
2022/11/22 03:05:57;;;;;;;29.00;15.15;;;;;;;;;;5015609;28;20394;-88
2022/11/22 03:08:23;;;;;;;30.10;15.20;;;;;;;;;;5015226;28;20154;-86
2022/11/22 03:10:49;;;;;;;26.27;16.30;;;;;;;;;;5018948;28;20056;-86
2022/11/22 03:13:15;;;;;;;25.00;14.00;;;;;;;;;;5019754;28;20045;-87
2022/11/22 03:15:41;;;;;;;27.45;14.90;;;;;;;;;;5036829;28;20103;-85
2022/11/22 03:18:07;;;;;;;28.20;14.27;;;;;;;;;;5021330;28;20049;-87
2022/11/22 03:20:33;;;;;;;24.80;14.23;;;;;;;;;;5023015;28;20042;-90
2022/11/22 03:23:00;;;;;;;26.15;14.63;;;;;;;;;;5021480;28;20486;-91
2022/11/22 03:25:26;;;;;;;27.83;15.13;;;;;;;;;;5019935;28;20033;-91
2022/11/22 03:27:52;;;;;;;26.63;15.70;;;;;;;;;;5019478;28;20524;-90
2022/11/22 03:30:18;;;;;;;27.75;15.02;;;;;;;;;;5020329;28;20046;-89
2022/11/22 03:32:44;;;;;;;24.48;14.43;;;;;;;;;;5019117;28;20054;-89
2022/11/22 03:35:11;;;;;;;28.75;15.25;;;;;;;;;;5019438;28;20079;-91
2022/11/22 03:37:37;;;;;;;23.75;13.88;;;;;;;;;;5018927;28;20045;-84
2022/11/22 03:40:04;;;;;;;30.35;16.15;;;;;;;;;;5020961;28;20055;-85
2022/11/22 03:42:30;;;;;;;25.98;14.75;;;;;;;;;;5023084;28;20160;-87
2022/11/22 03:44:56;;;;;;;25.50;14.02;;;;;;;;;;5039734;28;20563;-87
2022/11/22 03:47:22;;;;;;;24.67;14.75;;;;;;;;;;5022862;28;20037;-85
2022/11/22 03:49:48;;;;;;;34.15;15.43;;;;;;;;;;5037472;28;20107;-85
2022/11/22 03:52:14;;;;;;;23.08;14.05;;;;;;;;;;5019378;28;20056;-84
2022/11/22 03:54:40;;;;;;;29.75;14.90;;;;;;;;;;5020103;28;20096;-88
2022/11/22 03:57:06;;;;;;;22.35;13.48;;;;;;;;;;5035514;28;20045;-89
2022/11/22 03:59:32;;;;;;;24.27;14.32;;;;;;;;;;5019806;28;20046;-91
2022/11/22 04:01:58;;;;;;;25.45;13.98;;;;;;;;;;5019909;28;20052;-89
2022/11/22 04:04:24;;;;;;;25.85;14.88;;;;;;;;;;5019253;28;20524;-88
2022/11/22 04:06:50;;;;;;;24.02;14.30;;;;;;;;;;5018882;28;20046;-89
2022/11/22 04:09:16;;;;;;;26.98;15.38;;;;;;;;;;5018775;28;20046;-86
2022/11/22 04:11:42;;;;;;;24.48;15.40;;;;;;;;;;5019165;28;20040;-84
2022/11/22 04:16:55;;;;;;;28.85;14.48;;;;;;;;;;5019169;28;20049;-86
2022/11/22 04:19:21;;;;;;;22.23;14.35;;;;;;;;;;5035872;28;20037;-89
2022/11/22 04:21:47;;;;;;;27.90;14.65;;;;;;;;;;5035403;28;20060;-90
2022/11/22 04:26:58;;;;;;;24.00;14.05;;;;;;;;;;5019050;28;20046;-87
2022/11/22 04:29:24;;;;;;;24.63;13.95;;;;;;;;;;5018692;28;20041;-88
2022/11/22 04:34:36;;;;;;;25.90;14.73;;;;;;;;;;5017906;28;20395;-87
2022/11/22 04:37:02;;;;;;;25.38;13.52;;;;;;;;;;5034410;28;20048;-90
2022/11/22 04:39:28;;;;;;;25.85;14.55;;;;;;;;;;5017609;28;20413;-84
2022/11/22 04:44:40;;;;;;;22.70;14.60;;;;;;;;;;5017666;28;20042;-86
2022/11/22 04:47:07;;;;;;;23.90;15.73;;;;;;;;;;5034255;28;20057;-85
2022/11/22 04:49:33;;;;;;;26.50;14.63;;;;;;;;;;5035030;28;20059;-85
2022/11/22 04:54:43;;;;;;;24.25;14.98;;;;;;;;;;5017575;28;20059;-85
2022/11/22 04:57:09;;;;;;;25.27;15.07;;;;;;;;;;5017306;28;20042;-85
2022/11/22 04:59:35;;;;;;;29.02;16.02;;;;;;;;;;5017375;28;20049;-89
2022/11/22 05:02:02;;;;;;;27.13;15.40;;;;;;;;;;5034004;28;20104;-86
2022/11/22 05:04:28;;;;;;;23.20;14.48;;;;;;;;;;5033844;28;20045;-90
2022/11/22 05:06:55;;;;;;;26.88;15.50;;;;;;;;;;5017339;28;20077;-85
2022/11/22 05:09:21;;;;;;;23.17;13.75;;;;;;;;;;5017245;28;20052;-87
2022/11/22 05:11:47;;;;;;;27.15;13.95;;;;;;;;;;5017382;28;20037;-86
2022/11/22 05:14:13;;;;;;;22.42;13.27;;;;;;;;;;5017112;28;20048;-87
2022/11/22 05:16:39;;;;;;;32.58;15.45;;;;;;;;;;5017250;28;20125;-86
2022/11/22 05:19:06;;;;;;;28.13;15.48;;;;;;;;;;5017186;28;20450;-88
2022/11/22 05:21:34;;;;;;;26.77;13.60;;;;;;;;;;5017051;28;20041;-85
2022/11/22 05:24:00;;;;;;;26.80;15.52;;;;;;;;;;5033615;28;20128;-86
2022/11/22 05:26:27;;;;;;;27.63;15.93;;;;;;;;;;5033890;28;20040;-90
2022/11/22 05:28:55;;;;;;;26.27;14.48;;;;;;;;;;5017223;28;20129;-88
2022/11/22 05:31:22;;;;;;;24.98;15.38;;;;;;;;;;5016688;28;20132;-84
2022/11/22 05:33:49;;;;;;;25.52;14.75;;;;;;;;;;5016757;28;20405;-85
2022/11/22 05:36:15;;;;;;;25.15;15.50;;;;;;;;;;5017340;28;20049;-85
2022/11/22 05:38:41;;;;;;;25.67;15.10;;;;;;;;;;5017235;28;20072;-85
2022/11/22 05:41:12;;;;;;;23.35;13.48;;;;;;;;;;5035027;28;20120;-84
2022/11/22 05:43:38;;;;;;;21.40;13.73;;;;;;;;;;5018054;28;20044;-84
2022/11/22 05:46:15;;;;;;;27.13;16.00;;;;;;;;;;5017271;28;20053;-88
2022/11/22 05:48:43;;;;;;;26.05;14.93;;;;;;;;;;5033043;28;20060;-87
2022/11/22 05:51:10;;;;;;;29.13;15.25;;;;;;;;;;5018176;28;20065;-85
2022/11/22 05:53:37;;;;;;;26.42;14.82;;;;;;;;;;5017512;28;20080;-87
2022/11/22 05:58:29;;;;;;;26.08;15.30;;;;;;;;;;5056982;22;20056;-87
2022/11/22 06:00:55;;;;;;;27.48;15.55;;;;;;;;;;5021196;28;20060;-88
2022/11/22 06:03:22;;;;;;;22.80;14.65;;;;;;;;;;5020551;28;20045;-86
2022/11/22 06:05:51;;;;;;;31.75;15.27;;;;;;;;;;5021428;28;20186;-85
2022/11/22 06:08:18;;;;;;;26.55;15.85;;;;;;;;;;5033034;23;20041;-84
2022/11/22 06:10:44;;;;;;;26.10;16.05;;;;;;;;;;5020077;28;20041;-87
2022/11/22 06:15:42;;;;;;;26.15;14.38;;;;;;;;;;5013873;28;20132;-85
2022/11/22 06:18:08;;;;;;;24.80;14.52;;;;;;;;;;4984328;28;20127;-84
2022/11/22 06:20:34;;;;;;;24.42;13.35;;;;;;;;;;5000652;28;20045;-86
2022/11/22 06:23:01;;;;;;;24.70;14.73;;;;;;;;;;5002147;28;20045;-88
2022/11/22 06:25:59;;;;;;;;;;;;;;;;;;;;;
2022/11/22 06:32:06;;;;;;;24.85;14.18;;;;;;;;;;4943662;29;20402;-92
2022/11/22 06:35:21;;;;;;;22.30;13.50;;;;;;;;;;4899547;29;20049;-91
2022/11/22 06:44:50;;;;;;;24.42;14.65;;;;;;;;;;4809852;29;20050;-85
2022/11/22 06:47:16;;;;;;;21.85;13.55;;;;;;;;;;4793460;29;20092;-90
2022/11/22 06:49:44;;;;;;;29.90;14.30;;;;;;;;;;4793655;29;20104;-87
2022/11/22 06:52:10;;;;;;;34.25;14.98;;;;;;;;;;4793822;29;20182;-87
2022/11/22 06:54:36;;;;;;;20.60;13.10;;;;;;;;;;4794273;29;20149;-89
2022/11/22 06:57:02;;;;;;;24.88;12.93;;;;;;;;;;4834835;23;20466;-89
2022/11/22 06:59:28;;;;;;;22.95;14.05;;;;;;;;;;5018554;28;20053;-88
2022/11/22 07:01:55;;;;;;;25.15;13.98;;;;;;;;;;5020287;28;20080;-84
2022/11/22 07:04:21;;;;;;;22.38;13.32;;;;;;;;;;5027074;23;20041;-87
2022/11/22 07:06:47;;;;;;;25.42;14.68;;;;;;;;;;5020248;28;20053;-85
2022/11/22 07:09:15;;;;;;;26.00;15.02;;;;;;;;;;5019299;28;20045;-92
2022/11/22 07:11:41;;;;;;;30.05;15.48;;;;;;;;;;5019524;28;20045;-92
2022/11/22 07:14:08;;;;;;;21.38;12.93;;;;;;;;;;5019621;28;20126;-92
2022/11/22 07:16:35;;;;;;;21.95;13.57;;;;;;;;;;5052528;28;20056;-92
2022/11/22 07:19:01;;;;;;;21.50;14.25;;;;;;;;;;5021187;28;20033;-92
2022/11/22 07:21:27;;;;;;;24.75;14.43;;;;;;;;;;5029064;28;20068;-92
2022/11/22 07:23:54;;;;;;;22.92;14.23;;;;;;;;;;5020255;28;20087;-92
2022/11/22 07:26:21;;;;;;;25.63;14.50;;;;;;;;;;5019371;28;20045;-92
2022/11/22 07:28:48;;;;;;;22.83;13.10;;;;;;;;;;5019157;28;20049;-91
2022/11/22 07:31:15;;;;;;;22.00;13.20;;;;;;;;;;5019296;28;20501;-92
2022/11/22 07:33:41;;;;;;;21.38;12.52;;;;;;;;;;5019232;28;20436;-92
2022/11/22 07:36:09;;;;;;;25.23;11.93;;;;;;;;;;5020459;28;20041;-92
2022/11/22 07:38:35;;;;;;;23.02;12.05;;;;;;;;;;5019026;28;20045;-91
2022/11/22 07:41:01;;;;;;;20.08;11.10;;;;;;;;;;5019553;28;20048;-92
2022/11/22 07:43:28;;;;;;;27.35;10.52;;;;;;;;;;5019609;28;20220;-91
2022/11/22 07:46:01;;;;;;;24.08;9.20;;;;;;;;;;5021322;28;20041;-92
2022/11/22 07:48:27;;;;;;;26.20;12.02;;;;;;;;;;5019251;28;20512;-92
2022/11/22 07:50:53;;;;;;;23.33;9.60;;;;;;;;;;5020502;28;20041;-92
2022/11/22 07:53:19;;;;;;;18.45;8.68;;;;;;;;;;5019166;28;20136;-92
2022/11/22 07:55:45;;;;;;;21.98;9.65;;;;;;;;;;5055136;28;20535;-92
2022/11/22 07:58:11;;;;;;;17.98;8.98;;;;;;;;;;5023424;28;20045;-92
2022/11/22 08:00:37;;;;;;;20.33;8.27;;;;;;;;;;5022824;28;20037;-91
2022/11/22 08:03:03;;;;;;;18.98;7.97;;;;;;;;;;5039012;28;20512;-92
2022/11/22 08:05:32;;;;;;;17.17;6.70;;;;;;;;;;5022798;28;20053;-91
2022/11/22 08:07:58;;;;;;;18.23;8.50;;;;;;;;;;5022726;28;20051;-92
2022/11/22 08:10:24;;;;;;;15.82;7.80;;;;;;;;;;5041483;28;20158;-92
2022/11/22 08:12:50;;;;;;;16.80;7.15;;;;;;;;;;5059500;28;20112;-88
2022/11/22 08:15:17;;;;;;;21.30;8.18;;;;;;;;;;5058336;28;20052;-87
2022/11/22 08:17:43;;;;;;;12.23;6.93;;;;;;;;;;5056299;28;20507;-88
2022/11/22 08:20:09;;;;;;;16.05;7.25;;;;;;;;;;5038296;28;20120;-87
2022/11/22 08:22:36;;;;;;;14.90;6.05;;;;;;;;;;5038234;28;20037;-87
2022/11/22 08:25:02;;;;;;;8.38;5.85;;;;;;;;;;5021478;28;20057;-85
2022/11/22 08:27:28;;;;;;;16.63;6.40;;;;;;;;;;5055878;28;20073;-86
2022/11/22 08:29:54;;;;;;;10.73;5.50;;;;;;;;;;5038199;28;20060;-88
2022/11/22 08:32:20;;;;;;;13.55;6.30;;;;;;;;;;5021738;28;20037;-88
2022/11/22 08:34:46;;;;;;;17.35;6.57;;;;;;;;;;5021191;28;20497;-88
2022/11/22 08:37:12;;;;;;;13.98;5.93;;;;;;;;;;5021235;28;20532;-87
2022/11/22 08:39:38;;;;;;;15.70;6.40;;;;;;;;;;5021468;28;20114;-87
2022/11/22 08:42:05;;;;;;;11.02;5.45;;;;;;;;;;5021505;28;20509;-89
2022/11/22 08:44:31;;;;;;;12.52;6.25;;;;;;;;;;5037851;28;20476;-87
2022/11/22 08:46:57;;;;;;;11.82;5.13;;;;;;;;;;5021025;28;20509;-89
2022/11/22 08:49:23;;;;;;;12.45;6.40;;;;;;;;;;5022002;28;20083;-89
2022/11/22 08:51:50;;;;;;;22.30;6.13;;;;;;;;;;5037797;28;20400;-89
2022/11/22 08:54:16;;;;;;;9.60;6.88;;;;;;;;;;5020975;28;20049;-89
2022/11/22 08:56:42;;;;;;;12.02;5.93;;;;;;;;;;5020943;28;20132;-85
2022/11/22 08:59:08;;;;;;;15.57;6.18;;;;;;;;;;5037478;28;20084;-87
2022/11/22 09:01:34;;;;;;;19.27;7.07;;;;;;;;;;5037976;28;20040;-85
2022/11/22 09:04:00;;;;;;;18.75;6.13;;;;;;;;;;5020501;28;20057;-89
2022/11/22 09:06:26;;;;;;;19.00;4.85;;;;;;;;;;5020692;28;20044;-87
2022/11/22 09:08:52;;;;;;;6.47;3.78;;;;;;;;;;5037049;28;20131;-89
2022/11/22 09:11:19;;;;;;;15.05;4.70;;;;;;;;;;5020784;28;20119;-87
2022/11/22 09:13:45;;;;;;;11.95;5.00;;;;;;;;;;5020741;28;20047;-87
2022/11/22 09:16:16;;;;;;;20.35;5.95;;;;;;;;;;5020442;28;20044;-84
2022/11/22 09:18:45;;;;;;;10.70;4.38;;;;;;;;;;5020631;28;20433;-84
2022/11/22 09:21:16;;;;;;;8.05;3.67;;;;;;;;;;5020312;28;20043;-86
2022/11/22 09:23:45;;;;;;;7.72;4.47;;;;;;;;;;5036816;28;20099;-89
2022/11/22 09:26:13;;;;;;;14.50;4.72;;;;;;;;;;5054686;28;20124;-87
2022/11/22 09:28:39;;;;;;;15.57;3.63;;;;;;;;;;5020277;28;20546;-89
2022/11/22 09:31:09;;;;;;;9.68;4.80;;;;;;;;;;5036960;28;20045;-88
2022/11/22 09:33:36;;;;;;;10.23;3.92;;;;;;;;;;5020144;28;20045;-89
2022/11/22 09:36:04;;;;;;;10.25;4.72;;;;;;;;;;5020787;28;20037;-88
2022/11/22 09:38:30;;;;;;;7.38;3.72;;;;;;;;;;5020863;28;20041;-86
2022/11/22 09:40:57;;;;;;;8.65;4.43;;;;;;;;;;5020137;28;20045;-85
2022/11/22 09:43:32;;;;;;;10.07;4.63;;;;;;;;;;5036671;28;20041;-85
2022/11/22 09:46:08;;;;;;;13.13;4.47;;;;;;;;;;5020089;28;20049;-85
2022/11/22 09:48:37;;;;;;;9.52;4.38;;;;;;;;;;5019916;28;20045;-88
2022/11/22 09:51:13;;;;;;;8.52;4.95;;;;;;;;;;5020459;28;20179;-87
2022/11/22 09:53:54;;;;;;;10.20;4.18;;;;;;;;;;5036481;28;20044;-84
2022/11/22 09:56:22;;;;;;;7.53;4.03;;;;;;;;;;5036035;28;20048;-84
2022/11/22 09:58:50;;;;;;;13.88;3.95;;;;;;;;;;5036431;28;20408;-85
2022/11/22 10:01:19;;;;;;;9.38;4.15;;;;;;;;;;5019855;28;20131;-86
2022/11/22 10:03:51;;;;;;;5.90;4.75;;;;;;;;;;5019684;28;20420;-85
2022/11/22 10:06:38;;;;;;;13.85;4.70;;;;;;;;;;5036024;28;20497;-88
2022/11/22 10:09:19;;;;;;;19.20;4.88;;;;;;;;;;5036012;28;20493;-86
2022/11/22 10:11:52;;;;;;;6.20;4.22;;;;;;;;;;5019831;28;20040;-88
2022/11/22 10:14:27;;;;;;;17.67;5.82;;;;;;;;;;5019814;28;20427;-89
2022/11/22 10:17:00;;;;;;;12.55;5.63;;;;;;;;;;5019496;28;20080;-86
2022/11/22 10:19:34;;;;;;;12.97;5.70;;;;;;;;;;5019276;28;20037;-89
2022/11/22 10:22:01;;;;;;;11.50;5.55;;;;;;;;;;5019576;28;20051;-85
2022/11/22 10:24:28;;;;;;;12.30;4.32;;;;;;;;;;5019263;28;20080;-87
2022/11/22 10:26:56;;;;;;;5.60;4.32;;;;;;;;;;5019799;28;20040;-86
2022/11/22 10:29:42;;;;;;;11.70;4.82;;;;;;;;;;5035501;28;20048;-85
2022/11/22 10:32:13;;;;;;;10.93;4.22;;;;;;;;;;5019015;28;20524;-85
2022/11/22 10:34:46;;;;;;;8.52;4.90;;;;;;;;;;5019203;28;20080;-89
2022/11/22 10:37:19;;;;;;;14.30;4.82;;;;;;;;;;5035742;28;20582;-87
2022/11/22 10:39:51;;;;;;;9.40;5.23;;;;;;;;;;5019662;28;20051;-87
2022/11/22 10:42:29;;;;;;;7.63;4.28;;;;;;;;;;5019631;28;20292;-88
2022/11/22 10:45:04;;;;;;;8.43;5.00;;;;;;;;;;5019489;28;20045;-85
2022/11/22 10:47:49;;;;;;;15.95;4.70;;;;;;;;;;5019053;28;20057;-88
2022/11/22 10:50:39;;;;;;;4.28;2.90;;;;;;;;;;5019273;28;20494;-88
2022/11/22 10:53:23;;;;;;;9.18;3.15;;;;;;;;;;5006641;28;20049;-86
2022/11/22 10:55:58;;;;;;;4.85;2.83;;;6.10;99.90;;;;;;5035316;28;20052;-86
2022/11/22 10:58:34;;;;;;;10.95;3.45;;;;;;;;;;5018944;28;20063;-88
2022/11/22 11:01:06;;;;;;;8.45;3.35;;;;;;;;;;5036094;28;20041;-90
2022/11/22 11:03:38;;;;;;;9.70;3.00;;;;;;;;;;5035423;28;20379;-89
2022/11/22 11:06:13;;;;;;;8.50;3.42;;;;;;;;;;5035316;28;20064;-87
2022/11/22 11:08:44;;;;;;;4.85;2.67;;;;;;;;;;5035177;28;20045;-87
2022/11/22 11:11:12;;;;;;;8.70;3.17;;;;;;;;;;5018744;28;20060;-85
2022/11/22 11:13:41;;;;;;;9.90;3.35;;;;;;;;;;5035463;28;20040;-85
2022/11/22 11:16:09;;;;;;;9.20;3.88;;;;;;;;;;5018918;28;20045;-85
2022/11/22 11:18:41;;;;;;;10.70;3.28;;;;;;;;;;5018755;28;20072;-85
2022/11/22 11:21:11;;;;;;;6.82;3.05;;;;;;;;;;5018560;28;20555;-88
2022/11/22 11:23:37;;;;;;;6.88;3.20;;;;;;;;;;5035201;28;20049;-85
2022/11/22 11:26:27;;;;;;;6.05;2.53;;;6.40;99.90;;;;;;5035099;28;20041;-86
2022/11/22 11:29:26;;;;;;;7.63;2.60;;;;;;;;;;5035106;28;20563;-88
2022/11/22 11:32:08;;;;;;;6.68;3.72;;;6.40;99.90;;;;;;4924596;29;20059;-86
2022/11/22 11:34:35;;;;;;;8.05;2.92;;;;;;;;;;4925080;28;20051;-89
2022/11/22 11:37:02;;;;;;;5.47;2.55;;;;;;;;;;4925156;29;20140;-88
2022/11/22 11:39:30;;;;;;;8.05;2.85;;;6.40;99.90;;;;;;4925128;29;20118;-89
2022/11/22 11:41:57;;;;;;;11.02;4.13;;;;;;;;;;4940848;29;20063;-88
2022/11/22 11:44:26;;;;;;;6.30;2.88;;;;;;;;;;4924697;29;20047;-86
2022/11/22 11:46:52;;;;;;;6.20;3.72;;;;;;;;;;4924831;29;20047;-85
2022/11/22 11:49:20;;;;;;;7.30;3.30;;;;;;;;;;4940252;29;20055;-87
2022/11/22 11:51:57;;;;;;;3.85;3.00;;;;;;;;;;4940324;29;20047;-84
2022/11/22 11:54:41;;;;;;;6.70;2.80;;;6.80;99.90;;;;;;4924834;29;20616;-85
2022/11/22 11:57:14;;;;;;;6.60;2.30;;;;;;;;;;4924947;29;20447;-89
2022/11/22 11:59:40;;;;;;;7.97;3.00;;;;;;;;;;4940610;29;20047;-88
2022/11/22 12:02:09;;;;;;;4.95;3.33;;;;;;;;;;4924559;29;20512;-90
2022/11/22 12:04:49;;;;;;;6.15;3.63;;;7.20;99.90;;;;;;4924067;29;20607;-88
2022/11/22 12:07:17;;;;;;;6.53;2.47;;;;;;;;;;4983144;28;20053;-88
2022/11/22 12:09:44;;;;;;;5.72;2.10;;;;;;;;;;5038149;28;20045;-88
2022/11/22 12:12:29;;;;;;;15.00;3.00;;;;;;;;;;5021583;28;20501;-84
2022/11/22 12:15:21;;;;;;;10.00;3.35;;;7.20;99.90;;;;;;5021620;28;20040;-87
2022/11/22 12:17:54;;;;;;;10.85;2.67;;;;;;;;;;5037801;28;20532;-84
2022/11/22 12:20:26;;;;;;;8.40;2.53;;;;;;;;;;5021734;28;20053;-91
2022/11/22 12:23:09;;;;;;;8.30;2.75;;;;;;;;;;5021522;28;20135;-84
2022/11/22 12:25:36;;;;;;;5.95;2.90;;;;;;;;;;5022576;28;20389;-85
2022/11/22 12:28:11;;;;;;;5.07;2.63;;;;;;;;;;5021438;28;20037;-86
2022/11/22 12:30:38;;;;;;;5.53;2.72;;;;;;;;;;5021650;28;20405;-90
2022/11/22 12:33:06;;;;;;;4.18;2.15;;;;;;;;;;5021347;28;20481;-84
2022/11/22 12:35:42;;;;;;;9.30;3.00;;;;;;;;;;5021089;28;20088;-89
2022/11/22 12:38:20;;;;;;;10.68;2.70;;;;;;;;;;5021113;28;20080;-84
2022/11/22 12:40:47;;;;;;;4.45;2.45;;;;;;;;;;5037182;28;20133;-84
2022/11/22 12:43:16;;;;;;;5.15;2.45;;;;;;;;;;5037484;28;20041;-87
2022/11/22 12:45:44;;;;;;;10.32;2.72;;;;;;;;;;5022282;28;20041;-85
2022/11/22 12:48:18;;;;;;;10.10;2.70;;;;;;;;;;5020793;28;20055;-83
2022/11/22 12:50:46;;;;;;;7.13;2.20;;;;;;;;;;5038156;28;20049;-84
2022/11/22 12:53:14;;;;;;;5.45;2.53;;;;;;;;;;5021018;28;20048;-89
2022/11/22 12:55:53;;;;;;;4.72;2.85;;;;;;;;;;5038146;28;20048;-84
2022/11/22 12:58:23;;;;;;;4.35;2.55;;;;;;;;;;5020950;28;20436;-87
2022/11/22 13:01:00;;;;;;;11.73;2.65;;;;;;;;;;5020661;28;20044;-85
2022/11/22 13:03:31;;;;;;;6.57;2.50;;;;;;;;;;5038965;28;20036;-84
2022/11/22 13:05:58;;;;;;;14.55;3.60;;;;;;;;;;5023938;28;20085;-84
2022/11/22 13:08:36;;;;;;;5.63;2.70;;;;;;;;;;5023756;28;20405;-87
2022/11/22 13:11:11;;;;;;;4.05;2.10;;;7.10;99.90;;;;;;5037726;28;20044;-87
2022/11/22 13:13:47;;;;;;;6.43;2.38;;;;;;;;;;5020953;28;20465;-86
2022/11/22 13:16:14;;;;;;;2.92;2.20;;;;;;;;;;5020928;28;20041;-84
2022/11/22 13:18:46;;;;;;;10.52;2.45;;;;;;;;;;5036845;28;20040;-84
2022/11/22 13:21:39;;;;;;;5.70;2.55;;;7.30;99.90;;;;;;5020644;28;20080;-84
2022/11/22 13:24:23;;;;;;;3.72;2.17;;;;;;;;;;5020570;28;20049;-84
2022/11/22 13:27:15;;;;;;;;;;;7.00;99.90;;;;;;5020861;28;20041;-84
2022/11/22 13:29:42;;;;;;;5.78;2.90;;;7.00;99.90;;;;;;4997817;28;19920;-86
2022/11/22 13:32:11;;;;;;;2.53;1.90;;;;;;;;;;5036758;28;20079;-85
2022/11/22 13:34:41;;;;;;;7.13;2.38;;;7.10;99.90;;;;;;5020400;28;20412;-84
2022/11/22 13:37:10;;;;;;;9.38;2.40;;;;;;;;;;5020292;28;20037;-88
2022/11/22 13:39:41;;;;;;;4.68;2.03;;;;;;;;;;5020112;28;20048;-86
2022/11/22 13:42:11;;;;;;;4.75;2.30;;;;;;;;;;5020423;28;20049;-85
2022/11/22 13:44:48;;;;;;;5.07;1.73;;;;;;;;;;5020656;28;20074;-85
2022/11/22 13:47:14;;;;;;;14.98;2.38;;;;;;;;;;5019989;28;20045;-85
2022/11/22 13:49:41;;;;;;;3.33;1.73;;;;;;;;;;5019984;28;20041;-91
2022/11/22 13:52:16;;;;;;;4.88;1.88;;;;;;;;;;5020105;28;20040;-85
2022/11/22 13:54:45;;;;;;;8.07;2.05;;;;;;;;;;5035922;28;20391;-88
2022/11/22 13:57:30;;;;;;;7.50;2.20;;;;;;;;;;5036524;28;20049;-85
2022/11/22 14:00:34;;;;;;;5.07;2.17;;;7.20;99.90;;;;;;5036135;28;20048;-86
2022/11/22 14:03:15;;;;;;;5.82;1.80;;;;;;;;;;5014904;28;20053;-87
2022/11/22 14:05:42;;;;;;;5.10;2.40;;;;;;;;;;5035938;28;20053;-86
2022/11/22 14:08:26;;;;;;;5.32;1.98;;;;;;;;;;5035938;28;20067;-88
2022/11/22 14:10:52;;;;;;;4.13;1.90;;;;;;;;;;5036012;28;20485;-85
2022/11/22 14:13:18;;;;;;;6.13;1.92;;;;;;;;;;5020353;28;20059;-90
2022/11/22 14:15:47;;;;;;;7.38;2.25;;;;;;;;;;5035915;28;20077;-85
2022/11/22 14:18:52;;;;;;;8.52;2.28;;;7.10;99.90;;;;;;5020197;28;20397;-88
2022/11/22 14:21:21;;;;;;;9.85;2.40;;;;;;;;;;5018793;28;20053;-85
2022/11/22 14:24:10;;;;;;;5.00;2.10;;;;;;;;;;5019291;28;20049;-87
2022/11/22 14:26:59;;;;;;;11.23;1.90;;;;;;;;;;5019569;28;20045;-85
2022/11/22 14:29:44;;;;;;;4.47;2.05;;;;;;;;;;4921596;29;20051;-84
2022/11/22 14:32:21;;;;;;;4.75;1.80;;;;;;;;;;4937682;29;20051;-86
2022/11/22 14:35:05;;;;;;;6.78;1.98;;;;;;;;;;4921677;29;20521;-84
2022/11/22 14:37:30;;;;;;;;;;;7.10;99.90;;;;;;4937775;29;20098;-85
2022/11/22 14:40:05;;;;;;;4.65;2.10;;;;;;;;;;4953057;28;20007;-85
2022/11/22 14:42:35;;;;;;;3.25;2.47;;;;;;;;;;4921865;29;20047;-86
2022/11/22 14:45:09;;;;;;;7.25;2.00;;;;;;;;;;4921561;29;20511;-87
2022/11/22 14:48:04;;;;;;;6.93;2.85;;;7.20;99.90;;;;;;4921659;29;20532;-85
2022/11/22 14:50:41;;;;;;;1.60;1.50;;;;;;;;;;4932748;29;20094;-86
2022/11/22 14:53:17;;;;;;;6.50;2.15;;;;;;;;;;4937435;29;20054;-85
2022/11/22 14:55:43;;;;;;;3.58;1.92;;;;;;;;;;4937468;29;20043;-84
2022/11/22 14:58:16;;;;;;;1.60;1.48;;;7.00;99.90;;;;;;4921487;29;20098;-84
2022/11/22 15:00:54;;;;;;;3.78;1.52;;;;;;;;;;4937632;29;20090;-85
2022/11/22 15:03:26;;;;;;;3.67;1.75;;;;;;;;;;4921245;29;20083;-85
2022/11/22 15:06:01;;;;;;;1.58;1.10;;;;;;;;;;4952516;28;20052;-84
2022/11/22 15:08:35;;;;;;;1.63;1.45;;;;;;;;;;5023037;28;20059;-84